sensor_id;sensor_type;location;lat;lon;timestamp;pressure;altitude;pressure_sealevel;temperature;humidity
83514;BME280;73447;53.262;10.424;2024-03-07T00:01:00;102779.75;;;0.82;94.53
83514;BME280;73447;53.262;10.424;2024-03-07T00:03:26;102773.84;;;0.57;96.84
83514;BME280;73447;53.262;10.424;2024-03-07T00:05:51;102774.75;;;0.67;97.67
83514;BME280;73447;53.262;10.424;2024-03-07T00:08:17;102785.31;;;0.79;96.48
83514;BME280;73447;53.262;10.424;2024-03-07T00:10:42;102778.41;;;0.87;96.64
83514;BME280;73447;53.262;10.424;2024-03-07T00:13:09;102782.84;;;1.29;95.63
83514;BME280;73447;53.262;10.424;2024-03-07T00:15:34;102775.41;;;1.54;93.56
83514;BME280;73447;53.262;10.424;2024-03-07T00:18:00;102767.25;;;1.45;92.78
83514;BME280;73447;53.262;10.424;2024-03-07T00:20:26;102776.97;;;1.04;96.40
83514;BME280;73447;53.262;10.424;2024-03-07T00:22:51;102766.66;;;0.90;96.94
83514;BME280;73447;53.262;10.424;2024-03-07T00:25:17;102774.19;;;0.85;98.09
83514;BME280;73447;53.262;10.424;2024-03-07T00:27:45;102778.13;;;1.63;95.05
83514;BME280;73447;53.262;10.424;2024-03-07T00:30:10;102777.69;;;1.58;93.52
83514;BME280;73447;53.262;10.424;2024-03-07T00:32:38;102771.31;;;1.19;96.60
83514;BME280;73447;53.262;10.424;2024-03-07T00:35:06;102781.94;;;1.19;97.74
83514;BME280;73447;53.262;10.424;2024-03-07T00:37:34;102776.38;;;1.22;97.80
83514;BME280;73447;53.262;10.424;2024-03-07T00:39:59;102773.88;;;0.99;97.97
83514;BME280;73447;53.262;10.424;2024-03-07T00:42:24;102778.75;;;0.94;99.22
83514;BME280;73447;53.262;10.424;2024-03-07T00:44:51;102772.09;;;1.09;98.64
83514;BME280;73447;53.262;10.424;2024-03-07T00:47:16;102778.00;;;1.13;98.17
83514;BME280;73447;53.262;10.424;2024-03-07T00:49:43;102770.66;;;1.05;99.33
83514;BME280;73447;53.262;10.424;2024-03-07T00:52:09;102774.97;;;1.18;99.23
83514;BME280;73447;53.262;10.424;2024-03-07T00:54:35;102775.84;;;1.59;97.29
83514;BME280;73447;53.262;10.424;2024-03-07T00:57:00;102778.31;;;1.81;95.78
83514;BME280;73447;53.262;10.424;2024-03-07T00:59:26;102770.56;;;1.69;95.54
83514;BME280;73447;53.262;10.424;2024-03-07T01:01:51;102768.72;;;1.59;95.59
83514;BME280;73447;53.262;10.424;2024-03-07T01:04:17;102761.66;;;1.48;96.43
83514;BME280;73447;53.262;10.424;2024-03-07T01:06:43;102755.13;;;1.32;97.72
83514;BME280;73447;53.262;10.424;2024-03-07T01:09:08;102755.22;;;1.20;98.69
83514;BME280;73447;53.262;10.424;2024-03-07T01:11:40;102750.81;;;1.09;98.64
83514;BME280;73447;53.262;10.424;2024-03-07T01:14:06;102753.84;;;1.57;99.06
83514;BME280;73447;53.262;10.424;2024-03-07T01:16:31;102747.91;;;1.94;95.72
83514;BME280;73447;53.262;10.424;2024-03-07T01:18:57;102752.88;;;2.08;94.82
83514;BME280;73447;53.262;10.424;2024-03-07T01:21:23;102747.69;;;2.16;94.22
83514;BME280;73447;53.262;10.424;2024-03-07T01:23:49;102752.31;;;1.64;95.70
83514;BME280;73447;53.262;10.424;2024-03-07T01:26:14;102752.13;;;1.56;97.54
83514;BME280;73447;53.262;10.424;2024-03-07T01:28:40;102752.19;;;1.65;96.95
83514;BME280;73447;53.262;10.424;2024-03-07T01:31:06;102743.72;;;1.51;97.64
83514;BME280;73447;53.262;10.424;2024-03-07T01:33:32;102744.00;;;1.47;97.44
83514;BME280;73447;53.262;10.424;2024-03-07T01:35:57;102741.75;;;1.43;97.97
83514;BME280;73447;53.262;10.424;2024-03-07T01:38:22;102743.53;;;1.42;98.15
83514;BME280;73447;53.262;10.424;2024-03-07T01:40:48;102739.78;;;1.45;98.86
83514;BME280;73447;53.262;10.424;2024-03-07T01:43:14;102740.78;;;2.14;96.79
83514;BME280;73447;53.262;10.424;2024-03-07T01:45:39;102738.28;;;2.32;94.74
83514;BME280;73447;53.262;10.424;2024-03-07T01:48:05;102734.94;;;2.30;94.58
83514;BME280;73447;53.262;10.424;2024-03-07T01:50:32;102744.75;;;2.58;93.03
83514;BME280;73447;53.262;10.424;2024-03-07T01:52:59;102738.00;;;2.25;94.86
83514;BME280;73447;53.262;10.424;2024-03-07T01:55:24;102741.47;;;2.06;96.16
83514;BME280;73447;53.262;10.424;2024-03-07T01:57:50;102744.56;;;1.92;96.83
83514;BME280;73447;53.262;10.424;2024-03-07T02:00:15;102740.31;;;1.79;97.75
83514;BME280;73447;53.262;10.424;2024-03-07T02:02:44;102740.59;;;1.76;97.57
83514;BME280;73447;53.262;10.424;2024-03-07T02:05:09;102739.88;;;1.74;99.03
83514;BME280;73447;53.262;10.424;2024-03-07T02:07:36;102731.31;;;1.71;99.03
83514;BME280;73447;53.262;10.424;2024-03-07T02:10:05;102735.13;;;1.88;98.91
83514;BME280;73447;53.262;10.424;2024-03-07T02:12:32;102729.84;;;2.46;96.54
83514;BME280;73447;53.262;10.424;2024-03-07T02:14:57;102735.72;;;2.79;93.57
83514;BME280;73447;53.262;10.424;2024-03-07T02:17:26;102722.97;;;2.24;96.10
83514;BME280;73447;53.262;10.424;2024-03-07T02:19:52;102725.09;;;2.20;96.59
83514;BME280;73447;53.262;10.424;2024-03-07T02:22:18;102723.97;;;2.13;97.11
83514;BME280;73447;53.262;10.424;2024-03-07T02:24:44;102725.50;;;1.96;97.03
83514;BME280;73447;53.262;10.424;2024-03-07T02:27:10;102724.09;;;2.12;97.33
83514;BME280;73447;53.262;10.424;2024-03-07T02:29:36;102715.53;;;1.98;97.51
83514;BME280;73447;53.262;10.424;2024-03-07T02:32:02;102709.19;;;1.99;96.62
83514;BME280;73447;53.262;10.424;2024-03-07T02:34:28;102708.66;;;2.54;95.49
83514;BME280;73447;53.262;10.424;2024-03-07T02:36:54;102711.19;;;2.46;94.57
83514;BME280;73447;53.262;10.424;2024-03-07T02:39:19;102707.97;;;2.33;96.26
83514;BME280;73447;53.262;10.424;2024-03-07T02:41:46;102713.59;;;2.10;96.71
83514;BME280;73447;53.262;10.424;2024-03-07T02:44:13;102704.03;;;1.98;98.38
83514;BME280;73447;53.262;10.424;2024-03-07T02:46:39;102703.19;;;1.97;98.03
83514;BME280;73447;53.262;10.424;2024-03-07T02:49:05;102703.72;;;2.01;98.57
83514;BME280;73447;53.262;10.424;2024-03-07T02:51:30;102698.13;;;1.94;98.49
83514;BME280;73447;53.262;10.424;2024-03-07T02:53:56;102706.28;;;2.32;98.43
83514;BME280;73447;53.262;10.424;2024-03-07T02:56:23;102696.75;;;2.29;97.24
83514;BME280;73447;53.262;10.424;2024-03-07T02:58:48;102705.72;;;2.38;96.81
83514;BME280;73447;53.262;10.424;2024-03-07T03:01:14;102703.16;;;2.66;97.21
83514;BME280;73447;53.262;10.424;2024-03-07T03:03:39;102700.06;;;2.80;95.13
83514;BME280;73447;53.262;10.424;2024-03-07T03:06:08;102692.81;;;2.43;96.46
83514;BME280;73447;53.262;10.424;2024-03-07T03:08:34;102701.06;;;2.59;96.72
83514;BME280;73447;53.262;10.424;2024-03-07T03:11:00;102698.38;;;2.79;96.40
83514;BME280;73447;53.262;10.424;2024-03-07T03:13:26;102698.72;;;2.56;96.53
83514;BME280;73447;53.262;10.424;2024-03-07T03:15:54;102701.31;;;2.76;96.48
83514;BME280;73447;53.262;10.424;2024-03-07T03:18:23;102698.94;;;2.73;96.78
83514;BME280;73447;53.262;10.424;2024-03-07T03:20:49;102697.69;;;2.57;98.03
83514;BME280;73447;53.262;10.424;2024-03-07T03:23:14;102692.50;;;2.66;98.86
83514;BME280;73447;53.262;10.424;2024-03-07T03:25:41;102687.69;;;2.79;98.26
83514;BME280;73447;53.262;10.424;2024-03-07T03:28:06;102692.91;;;2.81;98.26
83514;BME280;73447;53.262;10.424;2024-03-07T03:30:36;102690.22;;;2.81;98.27
83514;BME280;73447;53.262;10.424;2024-03-07T03:33:01;102682.19;;;2.90;98.98
83514;BME280;73447;53.262;10.424;2024-03-07T03:35:27;102692.34;;;2.87;98.25
83514;BME280;73447;53.262;10.424;2024-03-07T03:37:52;102680.63;;;2.97;97.62
83514;BME280;73447;53.262;10.424;2024-03-07T03:40:18;102688.75;;;3.06;97.45
83514;BME280;73447;53.262;10.424;2024-03-07T03:42:43;102684.44;;;3.32;96.40
83514;BME280;73447;53.262;10.424;2024-03-07T03:45:10;102686.81;;;3.36;95.36
83514;BME280;73447;53.262;10.424;2024-03-07T03:47:40;102686.69;;;3.27;96.06
83514;BME280;73447;53.262;10.424;2024-03-07T03:50:07;102692.50;;;3.13;95.92
83514;BME280;73447;53.262;10.424;2024-03-07T03:52:33;102687.31;;;3.11;95.58
83514;BME280;73447;53.262;10.424;2024-03-07T03:55:03;102691.59;;;3.32;94.21
83514;BME280;73447;53.262;10.424;2024-03-07T03:57:31;102695.97;;;3.23;93.82
83514;BME280;73447;53.262;10.424;2024-03-07T03:59:57;102696.47;;;3.09;93.82
83514;BME280;73447;53.262;10.424;2024-03-07T04:02:22;102701.69;;;3.01;94.07
83514;BME280;73447;53.262;10.424;2024-03-07T04:04:49;102696.22;;;2.92;94.41
83514;BME280;73447;53.262;10.424;2024-03-07T04:07:15;102701.69;;;3.01;94.14
83514;BME280;73447;53.262;10.424;2024-03-07T04:09:43;102704.47;;;3.09;93.88
83514;BME280;73447;53.262;10.424;2024-03-07T04:12:09;102705.63;;;2.96;93.56
83514;BME280;73447;53.262;10.424;2024-03-07T04:14:41;102709.06;;;2.79;94.08
83514;BME280;73447;53.262;10.424;2024-03-07T04:17:08;102707.81;;;2.73;94.73
83514;BME280;73447;53.262;10.424;2024-03-07T04:19:36;102709.31;;;2.76;93.97
83514;BME280;73447;53.262;10.424;2024-03-07T04:22:03;102712.16;;;2.65;94.05
83514;BME280;73447;53.262;10.424;2024-03-07T04:24:30;102712.75;;;2.58;94.08
83514;BME280;73447;53.262;10.424;2024-03-07T04:26:58;102717.78;;;2.52;94.51
83514;BME280;73447;53.262;10.424;2024-03-07T04:29:24;102712.16;;;2.65;93.32
83514;BME280;73447;53.262;10.424;2024-03-07T04:31:49;102717.25;;;2.48;94.39
83514;BME280;73447;53.262;10.424;2024-03-07T04:34:15;102710.34;;;2.36;94.55
83514;BME280;73447;53.262;10.424;2024-03-07T04:36:41;102708.13;;;2.21;94.75
83514;BME280;73447;53.262;10.424;2024-03-07T04:39:06;102710.34;;;2.36;95.33
83514;BME280;73447;53.262;10.424;2024-03-07T04:41:39;102714.13;;;2.63;93.68
83514;BME280;73447;53.262;10.424;2024-03-07T04:44:05;102719.91;;;2.48;93.66
83514;BME280;73447;53.262;10.424;2024-03-07T04:46:30;102713.00;;;2.36;93.95
83514;BME280;73447;53.262;10.424;2024-03-07T04:48:56;102713.00;;;2.26;94.09
83514;BME280;73447;53.262;10.424;2024-03-07T04:51:22;102718.06;;;2.29;94.05
83514;BME280;73447;53.262;10.424;2024-03-07T04:53:47;102718.22;;;2.37;93.23
83514;BME280;73447;53.262;10.424;2024-03-07T04:56:13;102718.34;;;2.36;92.84
83514;BME280;73447;53.262;10.424;2024-03-07T04:58:39;102719.34;;;2.35;93.45
83514;BME280;73447;53.262;10.424;2024-03-07T05:01:05;102727.91;;;2.38;92.64
83514;BME280;73447;53.262;10.424;2024-03-07T05:03:30;102722.00;;;2.15;92.59
83514;BME280;73447;53.262;10.424;2024-03-07T05:05:55;102719.47;;;2.23;92.99
83514;BME280;73447;53.262;10.424;2024-03-07T05:08:22;102718.63;;;2.03;92.86
83514;BME280;73447;53.262;10.424;2024-03-07T05:10:47;102719.22;;;2.27;91.97
83514;BME280;73447;53.262;10.424;2024-03-07T05:13:13;102712.88;;;2.28;92.24
83514;BME280;73447;53.262;10.424;2024-03-07T05:15:38;102714.97;;;2.14;92.21
83514;BME280;73447;53.262;10.424;2024-03-07T05:18:04;102721.72;;;2.09;92.65
83514;BME280;73447;53.262;10.424;2024-03-07T05:20:30;102719.75;;;2.30;93.03
83514;BME280;73447;53.262;10.424;2024-03-07T05:22:55;102720.84;;;1.89;94.03
83514;BME280;73447;53.262;10.424;2024-03-07T05:25:20;102717.38;;;1.98;93.83
83514;BME280;73447;53.262;10.424;2024-03-07T05:27:47;102720.44;;;2.03;92.86
83514;BME280;73447;53.262;10.424;2024-03-07T05:30:16;102724.78;;;1.84;93.22
83514;BME280;73447;53.262;10.424;2024-03-07T05:32:41;102732.59;;;1.76;93.76
83514;BME280;73447;53.262;10.424;2024-03-07T05:35:07;102733.22;;;2.09;93.08
83514;BME280;73447;53.262;10.424;2024-03-07T05:37:33;102730.22;;;1.93;93.38
83514;BME280;73447;53.262;10.424;2024-03-07T05:39:58;102727.03;;;1.99;92.74
83514;BME280;73447;53.262;10.424;2024-03-07T05:42:25;102735.28;;;1.86;92.44
83514;BME280;73447;53.262;10.424;2024-03-07T05:44:51;102740.78;;;2.14;91.65
83514;BME280;73447;53.262;10.424;2024-03-07T05:47:16;102737.94;;;1.76;92.77
83514;BME280;73447;53.262;10.424;2024-03-07T05:49:43;102745.09;;;1.85;92.12
83514;BME280;73447;53.262;10.424;2024-03-07T05:52:08;102739.88;;;1.74;92.81
83514;BME280;73447;53.262;10.424;2024-03-07T05:54:35;102738.56;;;1.59;93.18
83514;BME280;73447;53.262;10.424;2024-03-07T05:57:01;102746.81;;;1.56;93.05
83514;BME280;73447;53.262;10.424;2024-03-07T05:59:27;102747.09;;;1.53;92.73
83514;BME280;73447;53.262;10.424;2024-03-07T06:01:59;102745.66;;;1.79;91.95
83514;BME280;73447;53.262;10.424;2024-03-07T06:04:24;102737.22;;;1.84;91.35
83514;BME280;73447;53.262;10.424;2024-03-07T06:06:50;102743.72;;;1.91;90.93
83514;BME280;73447;53.262;10.424;2024-03-07T06:09:15;102750.38;;;1.66;90.96
83514;BME280;73447;53.262;10.424;2024-03-07T06:11:46;102746.19;;;1.42;91.85
83514;BME280;73447;53.262;10.424;2024-03-07T06:14:12;102745.41;;;1.52;92.39
83514;BME280;73447;53.262;10.424;2024-03-07T06:16:39;102741.56;;;1.75;91.35
83514;BME280;73447;53.262;10.424;2024-03-07T06:19:05;102746.88;;;1.75;91.01
83514;BME280;73447;53.262;10.424;2024-03-07T06:21:35;102755.25;;;1.61;90.97
83514;BME280;73447;53.262;10.424;2024-03-07T06:24:01;102747.22;;;1.92;90.58
83514;BME280;73447;53.262;10.424;2024-03-07T06:26:29;102751.91;;;1.69;90.58
83514;BME280;73447;53.262;10.424;2024-03-07T06:29:09;102753.34;;;1.82;89.86
83514;BME280;73447;53.262;10.424;2024-03-07T06:31:37;102751.72;;;1.91;89.79
83514;BME280;73447;53.262;10.424;2024-03-07T06:34:03;102756.44;;;1.88;90.19
83514;BME280;73447;53.262;10.424;2024-03-07T06:36:28;102763.97;;;1.63;90.34
83514;BME280;73447;53.262;10.424;2024-03-07T06:38:54;102761.13;;;1.55;90.70
83514;BME280;73447;53.262;10.424;2024-03-07T06:41:20;102763.13;;;1.72;90.82
83514;BME280;73447;53.262;10.424;2024-03-07T06:43:45;102774.66;;;1.82;89.96
83514;BME280;73447;53.262;10.424;2024-03-07T06:46:11;102776.09;;;1.87;90.60
83514;BME280;73447;53.262;10.424;2024-03-07T06:48:38;102772.72;;;1.84;90.51
83514;BME280;73447;53.262;10.424;2024-03-07T06:51:05;102776.72;;;1.69;90.48
83514;BME280;73447;53.262;10.424;2024-03-07T06:53:30;102776.13;;;2.06;89.04
83514;BME280;73447;53.262;10.424;2024-03-07T06:55:56;102782.03;;;1.69;89.65
83514;BME280;73447;53.262;10.424;2024-03-07T06:58:21;102783.38;;;1.84;90.14
83514;BME280;73447;53.262;10.424;2024-03-07T07:00:50;102779.72;;;1.85;88.18
83514;BME280;73447;53.262;10.424;2024-03-07T07:03:22;102779.03;;;1.83;89.37
83514;BME280;73447;53.262;10.424;2024-03-07T07:05:49;102775.81;;;1.99;88.87
83514;BME280;73447;53.262;10.424;2024-03-07T07:08:14;102771.06;;;1.93;88.32
83514;BME280;73447;53.262;10.424;2024-03-07T07:10:41;102780.47;;;1.57;89.74
83514;BME280;73447;53.262;10.424;2024-03-07T07:13:08;102779.13;;;1.72;89.74
83514;BME280;73447;53.262;10.424;2024-03-07T07:15:33;102775.22;;;1.76;89.59
83514;BME280;73447;53.262;10.424;2024-03-07T07:17:59;102779.38;;;1.69;88.16
83514;BME280;73447;53.262;10.424;2024-03-07T07:20:27;102784.91;;;1.87;87.74
83514;BME280;73447;53.262;10.424;2024-03-07T07:22:52;102784.84;;;1.67;89.13
83514;BME280;73447;53.262;10.424;2024-03-07T07:25:18;102787.50;;;1.67;89.08
83514;BME280;73447;53.262;10.424;2024-03-07T07:27:50;102785.72;;;1.68;88.86
83514;BME280;73447;53.262;10.424;2024-03-07T07:30:18;102789.69;;;1.83;88.43
83514;BME280;73447;53.262;10.424;2024-03-07T07:32:44;102795.66;;;1.66;88.74
83514;BME280;73447;53.262;10.424;2024-03-07T07:35:11;102789.44;;;2.06;86.80
83514;BME280;73447;53.262;10.424;2024-03-07T07:37:50;102795.38;;;1.69;87.46
83514;BME280;73447;53.262;10.424;2024-03-07T07:40:21;102790.78;;;1.81;86.56
83514;BME280;73447;53.262;10.424;2024-03-07T07:42:50;102784.47;;;1.82;87.44
83514;BME280;73447;53.262;10.424;2024-03-07T07:45:17;102790.78;;;1.81;87.12
83514;BME280;73447;53.262;10.424;2024-03-07T07:47:48;102788.81;;;1.73;86.87
83514;BME280;73447;53.262;10.424;2024-03-07T07:50:21;102778.28;;;1.72;86.60
83514;BME280;73447;53.262;10.424;2024-03-07T07:52:51;102783.78;;;1.49;87.38
83514;BME280;73447;53.262;10.424;2024-03-07T07:55:19;102790.56;;;1.53;87.97
83514;BME280;73447;53.262;10.424;2024-03-07T07:57:49;102784.53;;;1.51;88.26
83514;BME280;73447;53.262;10.424;2024-03-07T08:00:18;102789.59;;;1.33;88.65
83514;BME280;73447;53.262;10.424;2024-03-07T08:02:53;102784.06;;;1.77;87.48
83514;BME280;73447;53.262;10.424;2024-03-07T08:05:20;102774.59;;;2.03;86.04
83514;BME280;73447;53.262;10.424;2024-03-07T08:07:49;102771.91;;;1.94;86.93
83514;BME280;73447;53.262;10.424;2024-03-07T08:10:17;102769.38;;;1.92;86.47
83514;BME280;73447;53.262;10.424;2024-03-07T08:12:43;102766.63;;;2.23;84.72
83514;BME280;73447;53.262;10.424;2024-03-07T08:15:12;102776.22;;;1.85;86.30
83514;BME280;73447;53.262;10.424;2024-03-07T08:17:43;102771.66;;;2.07;85.39
83514;BME280;73447;53.262;10.424;2024-03-07T08:20:19;102773.09;;;2.40;84.31
83514;BME280;73447;53.262;10.424;2024-03-07T08:22:46;102773.31;;;1.98;85.43
83514;BME280;73447;53.262;10.424;2024-03-07T08:25:13;102770.28;;;2.32;84.26
83514;BME280;73447;53.262;10.424;2024-03-07T08:27:40;102772.25;;;2.30;84.02
83514;BME280;73447;53.262;10.424;2024-03-07T08:30:07;102767.59;;;2.12;84.65
83514;BME280;73447;53.262;10.424;2024-03-07T08:32:36;102776.75;;;2.58;83.93
83514;BME280;73447;53.262;10.424;2024-03-07T08:35:05;102774.22;;;2.47;82.49
83514;BME280;73447;53.262;10.424;2024-03-07T08:37:41;102771.41;;;2.49;83.11
83514;BME280;73447;53.262;10.424;2024-03-07T08:40:08;102770.84;;;2.74;82.30
83514;BME280;73447;53.262;10.424;2024-03-07T08:42:36;102771.41;;;2.39;84.60
83514;BME280;73447;53.262;10.424;2024-03-07T08:45:03;102764.94;;;3.00;82.49
83514;BME280;73447;53.262;10.424;2024-03-07T08:47:33;102764.66;;;2.74;83.07
83514;BME280;73447;53.262;10.424;2024-03-07T08:50:00;102761.50;;;3.08;81.93
83514;BME280;73447;53.262;10.424;2024-03-07T08:52:25;102760.00;;;3.05;82.55
83514;BME280;73447;53.262;10.424;2024-03-07T08:54:51;102756.94;;;3.38;80.73
83514;BME280;73447;53.262;10.424;2024-03-07T08:57:16;102760.97;;;3.42;79.79
83514;BME280;73447;53.262;10.424;2024-03-07T08:59:43;102763.78;;;3.40;80.45
83514;BME280;73447;53.262;10.424;2024-03-07T09:02:10;102769.03;;;2.75;83.14
83514;BME280;73447;53.262;10.424;2024-03-07T09:04:37;102768.38;;;3.20;82.02
83514;BME280;73447;53.262;10.424;2024-03-07T09:07:04;102761.41;;;2.90;82.58
83514;BME280;73447;53.262;10.424;2024-03-07T09:09:30;102769.09;;;3.22;82.57
83514;BME280;73447;53.262;10.424;2024-03-07T09:11:55;102762.41;;;2.79;83.52
83514;BME280;73447;53.262;10.424;2024-03-07T09:14:21;102766.44;;;3.12;83.09
83514;BME280;73447;53.262;10.424;2024-03-07T09:16:47;102768.97;;;3.51;82.03
83514;BME280;73447;53.262;10.424;2024-03-07T09:19:14;102763.84;;;3.68;80.81
83514;BME280;73447;53.262;10.424;2024-03-07T09:21:40;102768.16;;;3.41;82.31
83514;BME280;73447;53.262;10.424;2024-03-07T09:24:06;102763.75;;;3.50;81.60
83514;BME280;73447;53.262;10.424;2024-03-07T09:26:33;102763.09;;;3.76;80.91
83514;BME280;73447;53.262;10.424;2024-03-07T09:28:59;102762.91;;;3.59;81.25
83514;BME280;73447;53.262;10.424;2024-03-07T09:31:26;102763.78;;;3.78;80.22
83514;BME280;73447;53.262;10.424;2024-03-07T09:33:51;102765.22;;;3.34;82.17
83514;BME280;73447;53.262;10.424;2024-03-07T09:36:19;102766.25;;;3.33;81.34
83514;BME280;73447;53.262;10.424;2024-03-07T09:38:44;102765.75;;;3.48;81.54
83514;BME280;73447;53.262;10.424;2024-03-07T09:41:10;102770.44;;;3.36;81.79
83514;BME280;73447;53.262;10.424;2024-03-07T09:43:35;102764.69;;;3.31;82.26
83514;BME280;73447;53.262;10.424;2024-03-07T09:46:04;102761.31;;;3.39;81.69
83514;BME280;73447;53.262;10.424;2024-03-07T09:48:30;102758.78;;;3.65;81.62
83514;BME280;73447;53.262;10.424;2024-03-07T09:50:57;102761.56;;;4.19;79.88
83514;BME280;73447;53.262;10.424;2024-03-07T09:53:24;102754.94;;;4.41;78.73
83514;BME280;73447;53.262;10.424;2024-03-07T09:55:52;102759.44;;;4.22;78.74
83514;BME280;73447;53.262;10.424;2024-03-07T09:58:19;102752.75;;;4.08;78.98
83514;BME280;73447;53.262;10.424;2024-03-07T10:00:45;102747.00;;;4.31;77.85
83514;BME280;73447;53.262;10.424;2024-03-07T10:03:12;102753.16;;;4.14;78.64
83514;BME280;73447;53.262;10.424;2024-03-07T10:05:41;102752.19;;;4.95;77.23
83514;BME280;73447;53.262;10.424;2024-03-07T10:08:07;102752.34;;;5.19;75.08
83514;BME280;73447;53.262;10.424;2024-03-07T10:10:33;102751.63;;;5.44;74.57
83514;BME280;73447;53.262;10.424;2024-03-07T10:12:58;102754.63;;;4.26;76.31
83514;BME280;73447;53.262;10.424;2024-03-07T10:15:32;102755.66;;;4.69;75.85
83514;BME280;73447;53.262;10.424;2024-03-07T10:17:58;102758.72;;;4.20;77.80
83514;BME280;73447;53.262;10.424;2024-03-07T10:20:24;102754.28;;;3.93;77.91
83514;BME280;73447;53.262;10.424;2024-03-07T10:22:50;102754.06;;;4.04;77.89
83514;BME280;73447;53.262;10.424;2024-03-07T10:25:20;102751.94;;;4.62;76.09
83514;BME280;73447;53.262;10.424;2024-03-07T10:27:53;102744.59;;;5.08;74.63
83514;BME280;73447;53.262;10.424;2024-03-07T10:30:19;102747.06;;;5.01;75.79
83514;BME280;73447;53.262;10.424;2024-03-07T10:32:48;102750.31;;;5.13;74.92
83514;BME280;73447;53.262;10.424;2024-03-07T10:35:20;102745.09;;;4.86;76.01
83514;BME280;73447;53.262;10.424;2024-03-07T10:37:47;102743.81;;;5.24;74.69
83514;BME280;73447;53.262;10.424;2024-03-07T10:40:13;102740.38;;;4.79;75.26
83514;BME280;73447;53.262;10.424;2024-03-07T10:42:46;102738.00;;;4.76;75.77
83514;BME280;73447;53.262;10.424;2024-03-07T10:45:18;102738.00;;;4.76;76.23
83514;BME280;73447;53.262;10.424;2024-03-07T10:47:52;102736.38;;;4.83;75.74
83514;BME280;73447;53.262;10.424;2024-03-07T10:53:40;102734.97;;;4.97;76.90
83514;BME280;73447;53.262;10.424;2024-03-07T10:59:18;102730.53;;;5.14;75.08
83514;BME280;73447;53.262;10.424;2024-03-07T11:01:59;102728.66;;;4.80;75.10
83514;BME280;73447;53.262;10.424;2024-03-07T11:04:26;102732.22;;;5.15;74.85
83514;BME280;73447;53.262;10.424;2024-03-07T11:06:52;102730.97;;;5.01;74.41
83514;BME280;73447;53.262;10.424;2024-03-07T11:09:19;102729.53;;;4.89;75.84
83514;BME280;73447;53.262;10.424;2024-03-07T11:11:49;102735.44;;;5.53;73.58
83514;BME280;73447;53.262;10.424;2024-03-07T11:14:15;102732.66;;;4.76;75.99
83514;BME280;73447;53.262;10.424;2024-03-07T11:16:42;102726.19;;;4.61;75.94
83514;BME280;73447;53.262;10.424;2024-03-07T11:19:18;102732.53;;;4.60;76.67
83514;BME280;73447;53.262;10.424;2024-03-07T11:21:44;102727.28;;;5.02;76.03
83514;BME280;73447;53.262;10.424;2024-03-07T11:24:22;102727.94;;;5.31;75.00
83514;BME280;73447;53.262;10.424;2024-03-07T11:26:48;102725.78;;;5.34;74.49
83514;BME280;73447;53.262;10.424;2024-03-07T11:32:15;102717.94;;;4.80;76.03
83514;BME280;73447;53.262;10.424;2024-03-07T11:34:42;102724.16;;;5.07;75.78
83514;BME280;73447;53.262;10.424;2024-03-07T11:37:08;102723.47;;;5.05;75.31
83514;BME280;73447;53.262;10.424;2024-03-07T11:39:47;102719.19;;;5.20;74.30
83514;BME280;73447;53.262;10.424;2024-03-07T11:42:31;102717.91;;;5.25;74.64
83514;BME280;73447;53.262;10.424;2024-03-07T11:44:59;102707.75;;;5.95;71.84
83514;BME280;73447;53.262;10.424;2024-03-07T11:47:38;102712.19;;;5.19;73.46
83514;BME280;73447;53.262;10.424;2024-03-07T11:50:05;102708.94;;;5.42;74.00
83514;BME280;73447;53.262;10.424;2024-03-07T11:52:33;102712.94;;;5.46;73.19
83514;BME280;73447;53.262;10.424;2024-03-07T11:55:02;102700.59;;;5.19;73.17
83514;BME280;73447;53.262;10.424;2024-03-07T11:57:31;102699.25;;;5.57;72.33
83514;BME280;73447;53.262;10.424;2024-03-07T12:00:00;102704.44;;;5.51;72.51
83514;BME280;73447;53.262;10.424;2024-03-07T12:02:27;102694.06;;;5.56;72.07
83514;BME280;73447;53.262;10.424;2024-03-07T12:04:54;102690.88;;;5.52;72.12
83514;BME280;73447;53.262;10.424;2024-03-07T12:07:20;102689.63;;;5.81;71.99
83514;BME280;73447;53.262;10.424;2024-03-07T12:09:48;102688.44;;;5.25;73.86
83514;BME280;73447;53.262;10.424;2024-03-07T12:12:20;102684.91;;;5.67;73.77
83514;BME280;73447;53.262;10.424;2024-03-07T12:14:47;102681.44;;;5.91;71.71
83514;BME280;73447;53.262;10.424;2024-03-07T12:17:13;102680.31;;;6.35;70.30
83514;BME280;73447;53.262;10.424;2024-03-07T12:19:41;102676.97;;;6.65;67.69
83514;BME280;73447;53.262;10.424;2024-03-07T12:22:11;102670.59;;;6.17;70.74
83514;BME280;73447;53.262;10.424;2024-03-07T12:24:40;102671.44;;;6.59;67.72
83514;BME280;73447;53.262;10.424;2024-03-07T12:27:12;102672.78;;;6.46;68.66
83514;BME280;73447;53.262;10.424;2024-03-07T12:29:41;102662.53;;;6.58;66.90
83514;BME280;73447;53.262;10.424;2024-03-07T12:32:09;102668.75;;;6.34;69.80
83514;BME280;73447;53.262;10.424;2024-03-07T12:34:39;102664.88;;;6.69;68.42
83514;BME280;73447;53.262;10.424;2024-03-07T12:37:09;102654.28;;;5.86;69.75
83514;BME280;73447;53.262;10.424;2024-03-07T12:39:35;102652.16;;;6.14;69.27
83514;BME280;73447;53.262;10.424;2024-03-07T12:42:03;102652.44;;;5.94;70.48
83514;BME280;73447;53.262;10.424;2024-03-07T12:44:39;102646.09;;;6.37;69.42
83514;BME280;73447;53.262;10.424;2024-03-07T12:47:09;102643.63;;;6.35;68.39
83514;BME280;73447;53.262;10.424;2024-03-07T12:49:35;102645.09;;;6.21;68.41
83514;BME280;73447;53.262;10.424;2024-03-07T12:52:00;102646.44;;;6.09;67.56
83514;BME280;73447;53.262;10.424;2024-03-07T12:54:26;102644.50;;;6.83;64.81
83514;BME280;73447;53.262;10.424;2024-03-07T12:56:52;102635.84;;;7.52;63.05
83514;BME280;73447;53.262;10.424;2024-03-07T12:59:17;102630.75;;;7.89;62.74